This is the latest recevied weather packets stored in our database for station/object KG7DQI-13. If no packets are shown the sender has not sent any weather packets the latest 10 day(s).
| Time | Temp. | Humidity | Pressure | Rain* | Wind** | Luminosity | Snow |
|---|---|---|---|---|---|---|---|
| 1777568915 | 15° C | 49% | 919.4 hPa | 0 mm | - | 538 W/m² | - |
| 1777567987 | 14.44° C | 50% | 919.2 hPa | 0 mm | - | 591 W/m² | - |
| 1777567086 | 13.89° C | 51% | 919.5 hPa | 0 mm | - | 534 W/m² | - |
| 1777566155 | 13.33° C | 52% | 919.6 hPa | 0 mm | - | 341 W/m² | - |
| 1777565282 | 13.33° C | 53% | 920 hPa | 0 mm | - | 461 W/m² | - |
| 1777564340 | 12.78° C | 52% | 920 hPa | 0 mm | - | 376 W/m² | - |
| 1777563433 | 11.67° C | 54% | 919.8 hPa | 0 mm | - | 403 W/m² | - |
| 1777562559 | 10.56° C | 58% | 920.1 hPa | 0 mm | - | 311 W/m² | - |
| 1777561619 | 9.44° C | 62% | 919.9 hPa | 0 mm | - | 199 W/m² | - |
| 1777560696 | 7.78° C | 66% | 920 hPa | 0 mm | - | 239 W/m² | - |
| 1777559821 | 5.56° C | 73% | 920.1 hPa | 0 mm | - | 220 W/m² | - |
| 1777558881 | 2.78° C | 80% | 919.9 hPa | 0 mm | - | 171 W/m² | - |
| 1777557949 | 0.56° C | 82% | 919.9 hPa | 0 mm | - | 132 W/m² | - |
| 1777557017 | -1.11° C | 84% | 919.8 hPa | 0 mm | - | 77 W/m² | - |
| 1777556136 | -1.67° C | 82% | 919.6 hPa | 0 mm | - | 39 W/m² | - |
| 1777555239 | -1.67° C | 85% | 919.6 hPa | 0 mm | - | 19 W/m² | - |
| 1777554367 | -1.67° C | 81% | 919.5 hPa | 0 mm | - | 9 W/m² | - |
| 1777553431 | -1.67° C | 82% | 919.5 hPa | 0 mm | - | 0 W/m² | - |
| 1777552543 | -1.67° C | 81% | 919.6 hPa | 0 mm | - | 0 W/m² | - |
| 1777551681 | -1.11° C | 79% | 919.6 hPa | 0 mm | - | 0 W/m² | - |
| 1777550773 | -0.56° C | 81% | 919.5 hPa | 0 mm | - | 0 W/m² | - |
| 1777549874 | -1.11° C | 83% | 919.5 hPa | 0 mm | - | 0 W/m² | - |
| 1777548962 | -1.11° C | 80% | 919.6 hPa | 0 mm | - | 0 W/m² | - |
| 1777548055 | -1.11° C | 80% | 919.7 hPa | 0 mm | - | 0 W/m² | - |
| 1777547154 | -0.56° C | 79% | 919.6 hPa | 0 mm | - | 0 W/m² | - |
* Rain latest hour (hover to see other rain measurements)
** Current wind speed in m/s (hover to see current wind gust speed)